createdAt,value
2022-10-18T00:08:10.026Z,102480.0
2022-10-18T00:18:10.031Z,102470.0
2022-10-18T00:28:10.030Z,102460.0
2022-10-18T00:48:10.044Z,102470.0
2022-10-18T00:58:10.050Z,102480.0
2022-10-18T01:08:10.054Z,102480.0
2022-10-18T01:18:34.715Z,102480.0
2022-10-18T01:28:10.049Z,102490.0
2022-10-18T01:38:10.061Z,102480.0
2022-10-18T01:48:10.069Z,102480.0
2022-10-18T01:58:10.069Z,102480.0
2022-10-18T02:08:22.777Z,102470.0
2022-10-18T02:28:10.207Z,102470.0
2022-10-18T02:38:10.077Z,102480.0
2022-10-18T02:48:34.769Z,102480.0
2022-10-18T02:58:10.090Z,102480.0
2022-10-18T03:08:10.091Z,102500.0
2022-10-18T03:28:10.095Z,102480.0
2022-10-18T03:38:10.103Z,102490.0
2022-10-18T03:48:10.114Z,102490.0
2022-10-18T03:58:10.112Z,102500.0
2022-10-18T04:08:10.110Z,102480.0
2022-10-18T04:18:10.112Z,102490.0
2022-10-18T04:28:10.114Z,102490.0
2022-10-18T04:38:10.140Z,102490.0
2022-10-18T04:48:10.123Z,102500.0
2022-10-18T04:58:10.122Z,102500.0
2022-10-18T05:08:10.136Z,102500.0
2022-10-18T05:18:34.808Z,102510.0
2022-10-18T05:28:34.054Z,102500.0
2022-10-18T05:48:10.153Z,102520.0
2022-10-18T05:58:10.147Z,102520.0
2022-10-18T06:08:10.380Z,102540.0
2022-10-18T06:18:10.156Z,102530.0
2022-10-18T06:28:11.611Z,102540.0
2022-10-18T06:38:34.857Z,102550.0
2022-10-18T06:48:10.217Z,102570.0
2022-10-18T07:08:34.838Z,102600.0
2022-10-18T07:18:34.859Z,102620.0
2022-10-18T07:28:34.912Z,102630.0
2022-10-18T07:38:10.185Z,102640.0
2022-10-18T07:48:10.247Z,102660.0
2022-10-18T07:58:10.239Z,102670.0
2022-10-18T08:08:10.337Z,102690.0
2022-10-18T08:18:10.201Z,102700.0
2022-10-18T08:28:10.200Z,102710.0
2022-10-18T08:48:10.203Z,102720.0
2022-10-18T08:58:10.210Z,102720.0
2022-10-18T09:08:10.212Z,102720.0
2022-10-18T09:18:10.222Z,102720.0
2022-10-18T09:28:10.236Z,102740.0
2022-10-18T09:38:10.231Z,102730.0
2022-10-18T09:48:34.922Z,102720.0
2022-10-18T09:58:10.239Z,102730.0
2022-10-18T10:08:34.914Z,102730.0
2022-10-18T10:18:10.250Z,102740.0
2022-10-18T10:28:10.260Z,102740.0
2022-10-18T10:38:10.260Z,102750.0
2022-10-18T10:48:10.269Z,102760.0
2022-10-18T10:58:10.274Z,102760.0
2022-10-18T11:08:10.271Z,102760.0
2022-10-18T11:18:10.282Z,102770.0
2022-10-18T11:28:10.292Z,102780.0
2022-10-18T11:38:10.294Z,102770.0
2022-10-18T11:48:10.306Z,102760.0
2022-10-18T11:58:10.301Z,102760.0
2022-10-18T12:08:10.300Z,102750.0
2022-10-18T12:18:10.314Z,102740.0
2022-10-18T12:28:10.330Z,102750.0
2022-10-18T12:38:10.320Z,102730.0
2022-10-18T12:48:10.315Z,102730.0
2022-10-18T12:58:10.330Z,102720.0
2022-10-18T13:08:10.334Z,102720.0
2022-10-18T13:18:10.340Z,102720.0
2022-10-18T13:28:10.335Z,102710.0
2022-10-18T13:38:10.343Z,102710.0
2022-10-18T13:48:10.350Z,102710.0
2022-10-18T13:58:10.346Z,102710.0
2022-10-18T14:08:10.607Z,102720.0
2022-10-18T14:18:10.355Z,102730.0
2022-10-18T14:28:12.233Z,102730.0
2022-10-18T14:38:10.366Z,102720.0
2022-10-18T14:48:10.373Z,102720.0
2022-10-18T14:58:10.371Z,102730.0
2022-10-18T15:08:10.406Z,102720.0
2022-10-18T15:18:10.376Z,102720.0
2022-10-18T15:28:10.575Z,102730.0
2022-10-18T15:38:10.392Z,102730.0
2022-10-18T15:48:10.456Z,102730.0
2022-10-18T15:58:10.392Z,102730.0
2022-10-18T16:08:10.394Z,102740.0
2022-10-18T16:28:10.398Z,102740.0
2022-10-18T16:38:10.397Z,102760.0
2022-10-18T16:48:10.404Z,102760.0
2022-10-18T16:58:10.485Z,102780.0
2022-10-18T17:08:10.419Z,102780.0
2022-10-18T17:18:10.400Z,102780.0
2022-10-18T17:28:10.402Z,102790.0
2022-10-18T17:38:10.413Z,102810.0
2022-10-18T17:48:10.413Z,102820.0
2022-10-18T17:58:10.432Z,102830.0
2022-10-18T18:08:10.410Z,102840.0
2022-10-18T18:18:10.416Z,102840.0
2022-10-18T18:28:10.415Z,102850.0
2022-10-18T18:38:10.432Z,102850.0
2022-10-18T18:48:10.422Z,102850.0
2022-10-18T18:58:10.430Z,102850.0
2022-10-18T19:08:10.437Z,102850.0
2022-10-18T19:18:10.434Z,102840.0
2022-10-18T19:28:10.429Z,102850.0
2022-10-18T19:38:10.436Z,102860.0
2022-10-18T19:48:13.354Z,102860.0
2022-10-18T20:18:10.442Z,102870.0
2022-10-18T20:38:10.450Z,102880.0
2022-10-18T20:48:10.470Z,102880.0
2022-10-18T21:08:10.458Z,102860.0
2022-10-18T21:18:10.468Z,102850.0
2022-10-18T21:38:35.144Z,102850.0
2022-10-18T21:48:10.496Z,102830.0
2022-10-18T21:58:10.465Z,102850.0
2022-10-18T22:08:10.471Z,102840.0
2022-10-18T22:18:10.471Z,102830.0
2022-10-18T22:28:10.575Z,102830.0
2022-10-18T22:48:35.248Z,102840.0
2022-10-18T22:58:35.252Z,102840.0
2022-10-18T23:08:10.587Z,102840.0
2022-10-18T23:18:35.330Z,102840.0
2022-10-18T23:28:10.603Z,102830.0
2022-10-18T23:38:10.599Z,102850.0
2022-10-18T23:48:10.597Z,102850.0
2022-10-18T23:58:35.273Z,102850.0
